createdAt,value
2024-03-19T00:02:54.764Z,6.44
2024-03-19T00:05:50.332Z,6.47
2024-03-19T00:08:45.880Z,6.98
2024-03-19T00:11:41.462Z,6.74
2024-03-19T00:14:37.043Z,5.77
2024-03-19T00:17:32.604Z,6.2
2024-03-19T00:20:31.185Z,6.57
2024-03-19T00:23:28.672Z,6.76
2024-03-19T00:26:28.236Z,6.44
2024-03-19T00:29:25.809Z,5.97
2024-03-19T00:32:22.370Z,6.22
2024-03-19T00:35:18.984Z,5.76
2024-03-19T00:38:15.549Z,6.11
2024-03-19T00:41:11.025Z,6.12
2024-03-19T00:44:07.579Z,5.74
2024-03-19T00:47:04.153Z,5.09
2024-03-19T00:50:00.697Z,4.52
2024-03-19T00:52:56.261Z,4.32
2024-03-19T00:55:51.864Z,5.09
2024-03-19T00:58:47.406Z,5.29
2024-03-19T01:01:42.971Z,4.96
2024-03-19T01:04:44.391Z,5.22
2024-03-19T01:07:42.072Z,5.65
2024-03-19T01:10:39.612Z,5.54
2024-03-19T01:13:36.153Z,5.41
2024-03-19T01:16:31.701Z,5.89
2024-03-19T01:19:28.297Z,6.09
2024-03-19T01:22:23.848Z,6.08
2024-03-19T01:25:19.397Z,5.85
2024-03-19T01:28:15.969Z,6.59
2024-03-19T01:31:11.509Z,6.01
2024-03-19T01:34:07.052Z,6.03
2024-03-19T01:37:02.657Z,5.65
2024-03-19T01:39:58.230Z,5.4
2024-03-19T01:42:55.946Z,5.26
2024-03-19T01:46:16.259Z,4.9
2024-03-19T01:49:12.826Z,5.99
2024-03-19T01:52:09.397Z,5.51
2024-03-19T01:55:06.934Z,4.87
2024-03-19T01:58:02.502Z,5.42
2024-03-19T02:00:58.042Z,5.06
2024-03-19T02:03:54.604Z,4.9
2024-03-19T02:06:52.183Z,4.18
2024-03-19T02:09:50.721Z,4.42
2024-03-19T02:12:46.312Z,4.84
2024-03-19T02:15:43.857Z,3.72
2024-03-19T02:18:39.434Z,3.89
2024-03-19T02:21:34.958Z,4.43
2024-03-19T02:24:32.537Z,4.57
2024-03-19T02:27:28.075Z,4.27
2024-03-19T02:30:25.626Z,4.26
2024-03-19T02:33:21.163Z,4.12
2024-03-19T02:36:16.767Z,4.11
2024-03-19T02:39:15.712Z,4.33
2024-03-19T02:42:11.860Z,4.8
2024-03-19T02:45:09.779Z,4.16
2024-03-19T02:48:06.035Z,4.07
2024-03-19T02:51:01.511Z,4.29
2024-03-19T02:53:59.116Z,3.88
2024-03-19T02:56:54.687Z,4.84
2024-03-19T02:59:50.262Z,4.59
2024-03-19T03:02:45.819Z,4.23
2024-03-19T03:05:45.352Z,4.17
2024-03-19T03:08:40.930Z,4.13
2024-03-19T03:11:37.480Z,4.14
2024-03-19T03:14:34.057Z,4.46
2024-03-19T03:17:30.623Z,4.17
2024-03-19T03:20:26.145Z,4.76
2024-03-19T03:23:21.685Z,5.05
2024-03-19T03:26:17.297Z,4.51
2024-03-19T03:29:12.832Z,4.79
2024-03-19T03:32:08.391Z,5.17
2024-03-19T03:35:04.962Z,5.14
2024-03-19T03:38:00.562Z,5.88
2024-03-19T03:40:57.033Z,5.02
2024-03-19T03:43:52.661Z,5.04
2024-03-19T03:46:48.204Z,4.78
2024-03-19T03:49:43.759Z,4.91
2024-03-19T03:52:41.326Z,5.7
2024-03-19T03:55:37.905Z,5.26
2024-03-19T03:58:33.401Z,4.91
2024-03-19T04:01:29.949Z,5.3
2024-03-19T04:04:25.565Z,5.78
2024-03-19T04:07:22.116Z,5.35
2024-03-19T04:10:18.659Z,4.69
2024-03-19T04:13:16.228Z,4.51
2024-03-19T04:16:12.786Z,4.76
2024-03-19T04:19:09.342Z,5.08
2024-03-19T04:22:05.930Z,4.8
2024-03-19T04:25:03.470Z,4.54
2024-03-19T04:27:59.020Z,5.3
2024-03-19T04:30:55.581Z,5.97
2024-03-19T04:34:03.224Z,5.17
2024-03-19T04:36:59.640Z,5.74
2024-03-19T04:39:56.269Z,5.93
2024-03-19T04:42:52.809Z,5.24
2024-03-19T04:45:48.354Z,6
2024-03-19T04:48:43.910Z,6.09
2024-03-19T04:51:40.444Z,6.04
2024-03-19T04:54:36.035Z,6.09
2024-03-19T04:57:31.563Z,6.13
2024-03-19T05:00:27.166Z,6.21
2024-03-19T05:03:23.712Z,6.42
2024-03-19T05:06:19.300Z,6.55
2024-03-19T05:09:15.831Z,6.42
2024-03-19T05:12:11.387Z,6.3
2024-03-19T05:15:07.946Z,5.52
2024-03-19T05:18:03.519Z,5.58
2024-03-19T05:21:00.072Z,5.89
2024-03-19T05:23:56.662Z,6.09
2024-03-19T05:26:52.197Z,7.06
2024-03-19T05:29:48.747Z,6.88
2024-03-19T05:32:45.409Z,6.78
2024-03-19T05:35:42.884Z,6.62
2024-03-19T05:38:38.404Z,6.35
2024-03-19T05:41:34.007Z,6.44
2024-03-19T05:44:30.525Z,7.14
2024-03-19T05:47:26.146Z,6.54
2024-03-19T05:50:23.654Z,6.73
2024-03-19T05:53:22.716Z,6.33
2024-03-19T05:59:29.388Z,6.69
2024-03-19T06:02:24.852Z,6.34
2024-03-19T06:05:20.775Z,7.29
2024-03-19T06:08:16.981Z,6.83
2024-03-19T06:11:13.550Z,7
2024-03-19T06:14:10.121Z,6.53
2024-03-19T06:17:07.687Z,7.09
2024-03-19T06:20:05.238Z,7.24
2024-03-19T06:23:02.767Z,6.11
2024-03-19T06:25:59.312Z,6.28
2024-03-19T06:28:55.908Z,6.75
2024-03-19T06:31:51.425Z,6.24
2024-03-19T06:34:47.021Z,6.6
2024-03-19T06:37:45.565Z,5.86
2024-03-19T06:40:43.126Z,5.82
2024-03-19T06:43:40.737Z,6.13
2024-03-19T06:46:37.246Z,6.41
2024-03-19T06:49:32.832Z,7.37
2024-03-19T06:52:28.368Z,7.06
2024-03-19T06:55:23.940Z,6.84
2024-03-19T06:58:21.492Z,6.69
2024-03-19T07:01:19.047Z,6.99
2024-03-19T07:04:14.588Z,7.21
2024-03-19T07:07:14.156Z,6.98
2024-03-19T07:10:10.765Z,6.57
2024-03-19T07:13:07.255Z,6.86
2024-03-19T07:16:04.829Z,7.63
2024-03-19T07:19:00.358Z,7.45
2024-03-19T07:21:57.949Z,7.16
2024-03-19T07:24:54.472Z,7.07
2024-03-19T07:27:50.115Z,7.22
2024-03-19T07:30:46.620Z,7.41
2024-03-19T07:33:42.182Z,7.2
2024-03-19T07:36:40.725Z,7.94
2024-03-19T07:39:36.311Z,7.58
2024-03-19T07:42:32.901Z,7.84
2024-03-19T07:45:28.487Z,7.21
2024-03-19T07:48:28.037Z,7.16
2024-03-19T07:51:27.505Z,7.36
2024-03-19T07:54:29.136Z,7.96
2024-03-19T07:57:25.612Z,8.12
2024-03-19T08:00:26.152Z,8.67
2024-03-19T08:03:22.768Z,9.11
2024-03-19T08:06:32.291Z,8.86
2024-03-19T08:09:29.826Z,8.7
2024-03-19T08:12:27.972Z,8.98
2024-03-19T08:15:23.922Z,9.23
2024-03-19T08:18:19.459Z,9.52
2024-03-19T08:21:17.069Z,9.64
2024-03-19T08:24:16.561Z,9.61
2024-03-19T08:27:17.515Z,9.79
2024-03-19T08:30:13.735Z,9.22
2024-03-19T08:33:11.267Z,9.04
2024-03-19T08:36:08.808Z,9.37
2024-03-19T08:39:08.362Z,8.94
2024-03-19T08:42:06.922Z,8.72
2024-03-19T08:45:11.472Z,8.58
2024-03-19T08:48:10.019Z,8.57
2024-03-19T08:51:07.572Z,8.96
2024-03-19T08:54:03.089Z,9.38
2024-03-19T08:57:02.702Z,9.55
2024-03-19T09:00:02.234Z,9.32
2024-03-19T09:03:02.785Z,9.53
2024-03-19T09:05:59.379Z,9.48
2024-03-19T09:08:55.900Z,9.66
2024-03-19T09:11:52.490Z,9.77
2024-03-19T09:14:49.042Z,9.59
2024-03-19T09:17:46.690Z,9.37
2024-03-19T09:20:45.113Z,9.78
2024-03-19T09:23:44.976Z,10.08
2024-03-19T09:26:40.245Z,10.22
2024-03-19T09:29:37.628Z,10.47
2024-03-19T09:32:36.346Z,10.55
2024-03-19T09:35:35.871Z,10.53
2024-03-19T09:38:34.452Z,9.95
2024-03-19T09:41:36.019Z,10.2
2024-03-19T09:44:33.580Z,10.22
2024-03-19T09:47:32.155Z,10.23
2024-03-19T09:50:27.711Z,10.83
2024-03-19T09:53:35.217Z,10.76
2024-03-19T09:56:30.789Z,10.74
2024-03-19T09:59:29.386Z,10.93
2024-03-19T10:02:27.876Z,10.9
2024-03-19T10:05:24.476Z,10.95
2024-03-19T10:08:21.976Z,11.02
2024-03-19T10:11:20.534Z,10.79
2024-03-19T10:14:16.098Z,10.68
2024-03-19T10:17:14.705Z,10.58
2024-03-19T10:20:12.255Z,10.63
2024-03-19T10:23:10.771Z,10.88
2024-03-19T10:26:09.351Z,10.94
2024-03-19T10:29:07.504Z,10.64
2024-03-19T10:32:14.929Z,10.78
2024-03-19T10:35:19.011Z,10.81
2024-03-19T10:38:25.175Z,10.81
2024-03-19T10:41:31.005Z,10.66
2024-03-19T10:44:36.636Z,10.16
2024-03-19T10:47:35.141Z,10.36
2024-03-19T10:50:32.665Z,10.65
2024-03-19T10:53:35.237Z,10.4
2024-03-19T10:56:35.766Z,10.75
2024-03-19T10:59:38.316Z,10.66
2024-03-19T11:02:46.790Z,11.3
2024-03-19T11:05:52.412Z,10.83
2024-03-19T11:08:53.937Z,11.12
2024-03-19T11:11:51.481Z,11.15
2024-03-19T11:14:55.507Z,11.52
2024-03-19T11:17:52.595Z,11.48
2024-03-19T11:20:52.126Z,12.15
2024-03-19T11:23:52.666Z,11.69
2024-03-19T11:26:48.230Z,11.95
2024-03-19T11:29:49.811Z,11.67
2024-03-19T11:32:54.326Z,12.03
2024-03-19T11:35:53.856Z,11.8
2024-03-19T11:38:55.475Z,12.72
2024-03-19T11:41:56.010Z,12.97
2024-03-19T11:44:52.515Z,13.01
2024-03-19T11:47:50.455Z,13.43
2024-03-19T11:50:54.614Z,12.82
2024-03-19T11:53:59.175Z,11.7
2024-03-19T11:56:59.734Z,12.61
2024-03-19T11:59:56.939Z,12.6
2024-03-19T12:02:54.823Z,13.39
2024-03-19T12:05:52.336Z,12.69
2024-03-19T12:08:49.920Z,12.02
2024-03-19T12:11:48.495Z,11.59
2024-03-19T12:14:47.004Z,11.41
2024-03-19T12:17:46.617Z,11
2024-03-19T12:20:46.333Z,11.11
2024-03-19T12:23:45.660Z,11
2024-03-19T12:26:44.215Z,10.96
2024-03-19T12:29:43.783Z,11
2024-03-19T12:32:49.656Z,10.62
2024-03-19T12:35:45.865Z,10.57
2024-03-19T12:38:46.818Z,10.68
2024-03-19T12:41:46.018Z,10.45
2024-03-19T12:44:47.763Z,10.31
2024-03-19T12:47:45.075Z,10.73
2024-03-19T12:50:43.704Z,11.06
2024-03-19T12:53:41.167Z,11.02
2024-03-19T12:56:40.441Z,10.67
2024-03-19T12:59:38.325Z,11.17
2024-03-19T13:02:34.863Z,10.92
2024-03-19T13:05:30.417Z,11.48
2024-03-19T13:08:28.029Z,11.29
2024-03-19T13:11:24.543Z,10.84
2024-03-19T13:14:21.134Z,10.9
2024-03-19T13:17:16.696Z,10.95
2024-03-19T13:20:12.266Z,11.21
2024-03-19T13:23:09.812Z,11.95
2024-03-19T13:26:10.324Z,11.87
2024-03-19T13:29:05.878Z,11.39
2024-03-19T13:32:01.512Z,11.18
2024-03-19T13:34:59.033Z,11.12
2024-03-19T13:37:55.685Z,12.38
2024-03-19T13:40:52.131Z,13.44
2024-03-19T13:43:47.673Z,12.42
2024-03-19T13:46:48.265Z,12.07
2024-03-19T13:49:59.562Z,12.26
2024-03-19T13:52:57.347Z,11.69
2024-03-19T13:55:53.851Z,12.92
2024-03-19T13:58:50.441Z,14.46
2024-03-19T14:01:48.023Z,13.7
2024-03-19T14:04:44.539Z,15.73
2024-03-19T14:07:40.093Z,13.23
2024-03-19T14:10:38.727Z,12.89
2024-03-19T14:13:35.219Z,12.18
2024-03-19T14:16:31.791Z,12.39
2024-03-19T14:19:28.354Z,11.7
2024-03-19T14:22:29.883Z,11.72
2024-03-19T14:25:25.408Z,12.17
2024-03-19T14:28:21.986Z,11.71
2024-03-19T14:31:26.558Z,13.03
2024-03-19T14:34:25.094Z,14.03
2024-03-19T14:37:20.707Z,14.44
2024-03-19T14:40:17.223Z,14.93
2024-03-19T14:43:12.781Z,12.93
2024-03-19T14:46:10.357Z,12.67
2024-03-19T14:49:08.900Z,13.03
2024-03-19T14:52:05.447Z,13.84
2024-03-19T14:55:02.021Z,13.44
2024-03-19T14:58:01.576Z,14.55
2024-03-19T15:00:57.129Z,15.31
2024-03-19T15:03:52.787Z,16.28
2024-03-19T15:06:48.622Z,14.5
2024-03-19T15:09:48.832Z,13.5
2024-03-19T15:12:46.345Z,13.68
2024-03-19T15:15:45.920Z,14.7
2024-03-19T15:18:42.460Z,16.45
2024-03-19T15:21:38.999Z,17.09
2024-03-19T15:24:34.545Z,18.22
2024-03-19T15:27:30.164Z,20.83
2024-03-19T15:30:27.680Z,19.13
2024-03-19T15:33:23.295Z,16.11
2024-03-19T15:36:18.833Z,15.88
2024-03-19T15:39:15.710Z,18.16
2024-03-19T15:42:11.009Z,18.94
2024-03-19T15:45:11.486Z,19.4
2024-03-19T15:48:08.101Z,18.82
2024-03-19T15:51:06.641Z,16.46
2024-03-19T15:54:02.159Z,16.84
2024-03-19T15:56:59.726Z,19.48
2024-03-19T15:59:56.274Z,17.87
2024-03-19T16:02:57.821Z,18.31
2024-03-19T16:05:53.382Z,18.67
2024-03-19T16:08:54.942Z,18.69
2024-03-19T16:11:51.523Z,19.38
2024-03-19T16:14:47.071Z,19.06
2024-03-19T16:17:47.558Z,17.55
2024-03-19T16:20:44.167Z,17.08
2024-03-19T16:23:44.719Z,17.93
2024-03-19T16:26:40.492Z,18.21
2024-03-19T16:29:35.797Z,17
2024-03-19T16:32:33.389Z,16.15
2024-03-19T16:35:28.966Z,16.57
2024-03-19T16:38:26.537Z,15.79
2024-03-19T16:41:22.078Z,14.36
2024-03-19T16:44:22.608Z,13.48
2024-03-19T16:47:18.137Z,12.71
2024-03-19T16:50:16.088Z,12.2
2024-03-19T16:53:11.310Z,12.12
2024-03-19T16:56:08.852Z,11.19
2024-03-19T16:59:05.445Z,11.06
2024-03-19T17:02:07.959Z,10.25
2024-03-19T17:05:09.508Z,10.91
2024-03-19T17:08:10.262Z,10.38
2024-03-19T17:11:06.610Z,10.63
2024-03-19T17:14:06.158Z,9.93
2024-03-19T17:17:04.726Z,10.36
2024-03-19T17:20:11.078Z,9.56
2024-03-19T17:23:14.848Z,9.35
2024-03-19T17:26:14.315Z,9.3
2024-03-19T17:29:10.926Z,9.22
2024-03-19T17:32:11.416Z,9.59
2024-03-19T17:35:13.013Z,9.61
2024-03-19T17:38:18.542Z,9.33
2024-03-19T17:41:16.090Z,9.17
2024-03-19T17:44:17.379Z,8.74
2024-03-19T17:47:20.164Z,8.22
2024-03-19T17:50:19.732Z,8.47
2024-03-19T17:53:19.281Z,8.39
2024-03-19T17:56:21.734Z,8.07
2024-03-19T17:59:20.402Z,7.92
2024-03-19T18:02:20.906Z,8.15
2024-03-19T18:05:16.587Z,8.39
2024-03-19T18:08:13.059Z,8.32
2024-03-19T18:11:09.602Z,8.39
2024-03-19T18:14:06.147Z,8.07
2024-03-19T18:17:05.709Z,7.84
2024-03-19T18:20:01.278Z,7.72
2024-03-19T18:23:07.798Z,7.61
2024-03-19T18:26:08.374Z,7.73
2024-03-19T18:29:08.914Z,7.4
2024-03-19T18:32:07.932Z,7.12
2024-03-19T18:35:06.025Z,7.68
2024-03-19T18:38:04.555Z,7.04
2024-03-19T18:41:01.134Z,6.56
2024-03-19T18:44:04.666Z,6.33
2024-03-19T18:47:11.011Z,6.25
2024-03-19T18:50:09.573Z,6.41
2024-03-19T18:53:11.339Z,6.43
2024-03-19T18:56:15.891Z,6.68
2024-03-19T18:59:13.409Z,6.86
2024-03-19T19:02:08.962Z,6.87
2024-03-19T19:05:12.510Z,6.43
2024-03-19T19:08:08.185Z,6.38
2024-03-19T19:11:05.692Z,5.75
2024-03-19T19:14:02.184Z,6.22
2024-03-19T19:17:08.192Z,6.09
2024-03-19T19:20:05.283Z,6.07
2024-03-19T19:23:02.809Z,6.05
2024-03-19T19:26:00.422Z,6.02
2024-03-19T19:29:10.715Z,5.87
2024-03-19T19:32:15.480Z,5.77
2024-03-19T19:35:24.990Z,5.37
2024-03-19T19:38:31.253Z,4.92
2024-03-19T19:41:49.539Z,4.78
2024-03-19T19:44:45.589Z,4.51
2024-03-19T19:47:42.170Z,4.91
2024-03-19T19:50:44.700Z,4.79
2024-03-19T19:53:45.206Z,4.49
2024-03-19T19:56:49.060Z,4.57
2024-03-19T19:59:57.098Z,4.55
2024-03-19T20:02:57.827Z,4.8
2024-03-19T20:05:57.392Z,4.9
2024-03-19T20:08:54.995Z,4.27
2024-03-19T20:12:00.492Z,4.71
2024-03-19T20:14:59.068Z,4.57
2024-03-19T20:17:55.594Z,4.43
2024-03-19T20:20:59.155Z,4.38
2024-03-19T20:24:00.714Z,4.36
2024-03-19T20:26:57.274Z,3.97
2024-03-19T20:29:57.815Z,4.7
2024-03-19T20:32:56.399Z,5.13
2024-03-19T20:35:57.963Z,4.74
2024-03-19T20:38:59.462Z,4.91
2024-03-19T20:42:00.987Z,4.65
2024-03-19T20:44:59.561Z,4.64
2024-03-19T20:48:06.167Z,4.35
2024-03-19T20:51:09.664Z,4.08
2024-03-19T20:54:09.176Z,3.93
2024-03-19T20:57:10.753Z,3.83
2024-03-19T21:00:16.605Z,3.86
2024-03-19T21:03:18.796Z,3.74
2024-03-19T21:07:02.200Z,4.13
2024-03-19T21:10:02.721Z,4.3
2024-03-19T21:12:58.358Z,4.88
2024-03-19T21:15:53.895Z,4.46
2024-03-19T21:18:55.450Z,4.49
2024-03-19T21:21:52.019Z,4.61
2024-03-19T21:24:49.934Z,4.57
2024-03-19T21:27:45.095Z,4.8
2024-03-19T21:30:44.702Z,5.04
2024-03-19T21:33:42.676Z,4.81
2024-03-19T21:36:44.780Z,4.52
2024-03-19T21:39:41.382Z,4.31
2024-03-19T21:42:36.913Z,3.86
2024-03-19T21:48:39.015Z,3.85
2024-03-19T21:51:35.528Z,3.91
2024-03-19T21:54:32.125Z,3.67
2024-03-19T21:57:31.680Z,3.15
2024-03-19T22:00:32.218Z,3.28
2024-03-19T22:03:31.789Z,3.28
2024-03-19T22:09:32.871Z,2.84
2024-03-19T22:12:32.762Z,2.76
2024-03-19T22:18:37.555Z,2.55
2024-03-19T22:21:33.050Z,2.99
2024-03-19T22:24:31.707Z,4.12
2024-03-19T22:27:28.205Z,5.18
2024-03-19T22:30:24.729Z,5.31
2024-03-19T22:33:20.299Z,4
2024-03-19T22:36:15.917Z,4.43
2024-03-19T22:39:23.427Z,3.85
2024-03-19T22:42:20.057Z,3.73
2024-03-19T22:45:15.505Z,3.34
2024-03-19T22:48:11.076Z,3.82
2024-03-19T22:51:06.649Z,3.88
2024-03-19T22:54:02.186Z,4.84
2024-03-19T22:56:58.768Z,4.39
2024-03-19T23:03:06.827Z,4.46
2024-03-19T23:06:05.374Z,4.2
2024-03-19T23:09:02.945Z,3.56
2024-03-19T23:11:58.487Z,3.2
2024-03-19T23:14:55.066Z,3.18
2024-03-19T23:17:52.928Z,3.92
2024-03-19T23:20:48.201Z,5.08
2024-03-19T23:23:46.708Z,5.78
2024-03-19T23:26:42.314Z,6.13
2024-03-19T23:29:38.837Z,6.4
2024-03-19T23:32:35.543Z,5.85
2024-03-19T23:35:30.930Z,4.82
2024-03-19T23:38:26.502Z,4.23
2024-03-19T23:41:24.080Z,4.12
2024-03-19T23:44:19.695Z,3.67
2024-03-19T23:47:16.221Z,3.32
2024-03-19T23:50:11.788Z,3.59
2024-03-19T23:53:10.303Z,4.44
2024-03-19T23:56:08.863Z,4.95
2024-03-19T23:59:05.446Z,5.42
